KBIL METAR and TAF | Updated Today

KBIL METAR

Billings Logan International Airport

Observation time: 13 min. ago

KBIL 301853Z 24017KT 10SM OVC090 07/M01 A3001 RMK AO2 SLP176 VIRGA W-E ACSL DSNT SW-NE T00721006

Need help? Read our tutorial on how to read METARs or read the parsed version below.

Billings Logan International Airport (KBIL) METAR

  • Weather conditions on Tue, 30 Nov 2021 18:53:00 +0000 (13 min. ago):
  • Present conditions: Dry
  • Clouds: Overcast sky at 2743 meters
  • Visibility: 16093 meters
  • Wind: 240 degrees at 17 knots
  • Temperature: 7 celsius
  • Dew point: -1 celsius
  • Pressure: 30.01 inHg
  • Remarks: AO2 SLP176 VIRGA W-E ACSL DSNT SW-NE T00721006


Useful to know...

KBIL TAF

Billings Logan International Airport

KBIL 301726Z 3018/0118 25012KT P6SM BKN200 FM302000 28016G24KT P6SM BKN200
Observation time: 1:40 hr. ago
Need help? Read our tutorial on how to read TAFs or read the parsed version below.

Parsed version of TAF for Billings Logan International Airport (KBIL)

  • From 30 November at 18:00 UTC, to day 01 of the month at 18:00 UTC
  • Clouds: Broken sky at 6096 meters
  • Wind: 250 degrees at 12
  • From day 30 of the month at 20:00 UTC
  • Clouds: Broken sky at 6096 meters
  • Wind: 280 degrees at 16

Airports near KBIL

KRPX Weather
Region: Roundup

Roundup Airport

Not found in our database